METAR Data
IDs: Format: Raw Decoded Include TAF

Data at: 2206 UTC 18 Sep 2018

KUKF 182145Z AUTO 32005KT 10SM CLR 28/17 A2997 RMK AO2
KUKF 182125Z AUTO 32005KT 10SM CLR 28/17 A2997 RMK AO2
KUKF 182105Z AUTO 33006KT 10SM CLR 28/16 A2997 RMK AO2
KUKF 182045Z AUTO 33006KT 10SM CLR 30/17 A2997 RMK AO2
KUKF 182025Z AUTO 32008KT 10SM SCT060 30/17 A2997 RMK AO2
KUKF 182005Z AUTO 33005KT 10SM SCT060 30/18 A2997 RMK AO2
KUKF 181945Z AUTO 32009G17KT 10SM SCT050 29/17 A2997 RMK AO2
KUKF 181925Z AUTO 28005G14KT 10SM SCT050 30/17 A2997 RMK AO2
KUKF 181905Z AUTO 31008KT 10SM BKN050 30/17 A2997 RMK AO2
KUKF 181845Z AUTO 31006KT 10SM SCT050 29/18 A2998 RMK AO2
KUKF 181825Z AUTO 31006KT 10SM SCT050 30/18 A2999 RMK AO2
KUKF 181805Z AUTO 33008KT 10SM SCT048 SCT060 29/18 A3000 RMK AO2
KUKF 181745Z AUTO 29007KT 10SM SCT048 28/18 A3000 RMK AO2
KUKF 181725Z AUTO 30004KT 10SM SCT055 27/18 A3001 RMK AO2
KUKF 181705Z AUTO 32006KT 10SM SCT047 BKN055 27/19 A3001 RMK AO2
KUKF 181645Z AUTO 27003KT 10SM BKN046 OVC055 27/20 A3002 RMK AO2
KUKF 181625Z AUTO 26006KT 10SM SCT038 BKN044 OVC049 27/20 A3002 RMK AO2
KUKF 181605Z AUTO 27005KT 10SM SCT041 BKN049 27/20 A3002 RMK AO2
KUKF 181545Z AUTO 26010KT 10SM SCT049 27/20 A3002 RMK AO2
KUKF 181525Z AUTO 28010G14KT 240V300 10SM CLR 27/20 A3002 RMK AO2
KUKF 181505Z AUTO 26007KT 10SM CLR 27/22 A3002 RMK AO2
KUKF 181445Z AUTO 23006KT 10SM CLR 26/22 A3002 RMK AO2
KUKF 181425Z AUTO 25006KT 10SM CLR 26/22 A3002 RMK AO2
KUKF 181405Z AUTO 24005KT 10SM CLR 25/22 A3001 RMK AO2
KUKF 181345Z AUTO 23004KT 10SM CLR 24/23 A3001 RMK AO2
KUKF 181325Z AUTO 23003KT 10SM CLR 22/22 A3001 RMK AO2
KUKF 181305Z AUTO 27003KT 10SM CLR 21/21 A3000 RMK AO2
KUKF 181245Z AUTO 00000KT 10SM SCT100 20/20 A3000 RMK AO2
KUKF 181225Z AUTO 00000KT 10SM OVC110 20/20 A3001 RMK AO2
KUKF 181205Z AUTO 00000KT 10SM OVC110 20/20 A3001 RMK AO2
KUKF 181145Z AUTO 22003KT 10SM OVC100 20/20 A3001 RMK AO2
KUKF 181125Z AUTO 00000KT 10SM RA OVC100 20/20 A3001 RMK AO2
KUKF 181105Z AUTO 24003KT 10SM RA SCT060 SCT075 OVC090 20/20 A3001 RMK AO2
KUKF 181045Z AUTO 27003KT 10SM OVC090 20/20 A3000 RMK AO2 P0002
KUKF 181025Z AUTO 00000KT 10SM OVC090 20/20 A2993 RMK AO2 LTG DSNT N AND S P0002
KUKF 181005Z AUTO 00000KT 10SM OVC100 20/20 A2993 RMK AO2 P0002
KUKF 180945Z AUTO 23004KT 10SM -DZ OVC100 20/20 A2993 RMK AO2
KUKF 180925Z AUTO 00000KT 10SM SCT065 BKN100 BKN120 20/20 A2992 RMK AO2
KUKF 180905Z AUTO 24003KT 10SM -RA SCT065 BKN100 OVC120 20/20 A2992 RMK AO2
KUKF 180845Z AUTO 24003KT 10SM DZ OVC110 20/20 A2992 RMK AO2
KUKF 180825Z AUTO 21004KT 10SM OVC110 20/20 A2993 RMK AO2
KUKF 180805Z AUTO 00000KT 10SM OVC110 20/20 A2993 RMK AO2
KUKF 180745Z AUTO 00000KT 10SM BKN120 20/20 A2993 RMK AO2
KUKF 180725Z AUTO 23003KT 10SM BKN110 20/20 A2994 RMK AO2
KUKF 180705Z AUTO 00000KT 10SM BKN120 20/20 A2995 RMK AO2
KUKF 180645Z AUTO 00000KT 10SM OVC120 20/20 A2996 RMK AO2
KUKF 180625Z AUTO 00000KT 10SM OVC110 20/20 A2996 RMK AO2
KUKF 180605Z AUTO 00000KT 10SM OVC110 20/20 A2997 RMK AO2
KUKF 180545Z AUTO 00000KT 10SM OVC095 20/20 A2997 RMK AO2
KUKF 180525Z AUTO 00000KT 10SM OVC085 20/20 A2998 RMK AO2 LTG DSNT NE
KUKF 180505Z AUTO 00000KT 10SM OVC085 20/20 A2998 RMK AO2
KUKF 180445Z AUTO 00000KT 10SM OVC085 21/21 A2998 RMK AO2
KUKF 180425Z AUTO 00000KT 10SM OVC085 21/21 A2998 RMK AO2
KUKF 180405Z AUTO 00000KT 10SM BKN085 OVC110 21/21 A2998 RMK AO2
KUKF 180345Z AUTO 26003KT 10SM SCT085 OVC110 20/20 A2998 RMK AO2
KUKF 180325Z AUTO 00000KT 10SM SCT080 OVC110 20/20 A2998 RMK AO2
KUKF 180305Z AUTO 00000KT 10SM SCT080 BKN110 20/20 A2998 RMK AO2
KUKF 180245Z AUTO 22003KT 10SM SCT090 20/20 A2998 RMK AO2 P0002
KUKF 180225Z AUTO 00000KT 10SM SCT050 20/20 A2998 RMK AO2 P0002
KUKF 180005Z AUTO 21006KT 7SM -RA SCT015 BKN031 OVC080 21/21 A2995 RMK AO2 LTG DSNT NE AND SE
KUKF 172305Z AUTO 16003KT 10SM BKN041 OVC050 24/23 A2993 RMK AO2
KUKF 172245Z AUTO 00000KT 10SM SCT041 BKN046 OVC050 25/22 A2993 RMK AO2
KUKF 172225Z AUTO 18003KT 10SM SCT038 BKN044 OVC050 25/22 A2993 RMK AO2
KUKF 172205Z AUTO 19003KT 10SM BKN036 OVC046 25/22 A2993 RMK AO2
KUKF 172125Z AUTO 00000KT 10SM SCT034 OVC046 25/22 A2993 RMK AO2
KUKF 172105Z AUTO 21003KT 10SM SCT034 OVC044 26/22 A2993 RMK AO2
KUKF 172045Z AUTO 20005KT 10SM BKN032 OVC046 26/21 A2993 RMK AO2
KUKF 172025Z AUTO 21009KT 10SM BKN048 OVC060 26/21 A2993 RMK AO2
KUKF 172005Z AUTO 21010KT 10SM SCT050 OVC060 27/21 A2993 RMK AO2
KUKF 171945Z AUTO 20008G14KT 160V230 10SM SCT031 OVC050 26/21 A2995 RMK AO2
KUKF 171925Z AUTO 18010G16KT 10SM SCT029 SCT035 BKN048 28/22 A2995 RMK AO2
KUKF 171905Z AUTO 21010G19KT 170V230 10SM SCT027 SCT033 BKN050 27/22 A2996 RMK AO2
KUKF 171845Z AUTO 17009G16KT 10SM SCT025 SCT035 OVC050 26/22 A2997 RMK AO2
KUKF 171825Z AUTO 18004KT 10SM SCT033 SCT041 OVC050 25/22 A2998 RMK AO2
KUKF 171805Z AUTO 18005KT 10SM SCT025 BKN032 OVC042 25/22 A2999 RMK AO2
KUKF 171745Z AUTO 18004G15KT 10SM SCT022 SCT031 OVC042 25/22 A2999 RMK AO2
KUKF 171725Z AUTO 18005KT 10SM SCT019 SCT033 OVC040 25/22 A3000 RMK AO2
KUKF 171705Z AUTO 20006KT 10SM SCT019 OVC038 25/22 A3000 RMK AO2
KUKF 171645Z AUTO 18008G14KT 10SM SCT017 BKN027 OVC034 24/22 A3000 RMK AO2
KUKF 171625Z AUTO 20005KT 10SM BKN015 BKN022 OVC034 25/23 A3000 RMK AO2
KUKF 171605Z AUTO 21009KT 10SM SCT015 SCT026 OVC036 24/23 A3000 RMK AO2
KUKF 171545Z AUTO 20005KT 10SM SCT013 BKN026 OVC034 23/23 A3000 RMK AO2
KUKF 171505Z AUTO 18004KT 10SM BKN013 OVC023 22/22 A3000 RMK AO2
KUKF 171445Z AUTO 18003KT 10SM SCT009 BKN015 OVC021 22/22 A3001 RMK AO2
KUKF 171425Z AUTO 19003KT 5SM -DZ SCT010 SCT015 OVC020 21/21 A3000 RMK AO2 LTG DSNT E
KUKF 171345Z AUTO 19006KT 7SM BKN012 OVC017 22/22 A3000 RMK AO2
KUKF 171325Z AUTO 19004KT 10SM BKN013 BKN018 OVC032 21/21 A3000 RMK AO2 LTG DSNT NE
KUKF 171305Z AUTO 17004KT 10SM BKN016 OVC028 21/21 A3000 RMK AO2
KUKF 171245Z AUTO 19003KT 10SM SCT016 BKN020 OVC028 21/21 A3000 RMK AO2
KUKF 171225Z AUTO 00000KT 10SM BKN016 OVC028 21/21 A2999 RMK AO2
KUKF 171205Z AUTO 19003KT 7SM OVC016 21/21 A2999 RMK AO2
KUKF 171145Z AUTO 17003KT 10SM SCT010 OVC016 20/20 A2998 RMK AO2 LTG DSNT SE
KUKF 171125Z AUTO 15003KT 10SM OVC013 21/21 A2997 RMK AO2 LTG DSNT SE
KUKF 171105Z AUTO 17004KT 10SM OVC013 21/21 A2997 RMK AO2 LTG DSNT SE
KUKF 171045Z AUTO 16004KT 10SM OVC013 21/21 A2997 RMK AO2
KUKF 171025Z AUTO 16005KT 10SM SCT007 OVC013 21/21 A2996 RMK AO2